TAR542 DTTA-EDDM
Flight info
| Callsign | TAR542 |
|---|---|
| Flight time | 1h 43m |
| Altitude | 34000 |
| Route | TOBIB2A TOBIB A725 TANIT UA725 OSMAR DCT TIVUK DCT QUENN DCT VELAD DCT GINAR DCT SOTOV/N0371F240 T101 BETOS BETOS1B |
| Aircraft | A320/M-SDE3FGHIRWY/LB1 |
Departure
| Time | 2026-05-06 16:24 |
|---|---|
| Airport | Tunis Carthage International Airport (DTTA) |
Arrival
| Time | 2026-05-06 18:07 |
|---|---|
| Airport | Munich Airport (EDDM) |
| Time | Latitude | Longitude | Altitude | Speed | Heading |
|---|---|---|---|---|---|
| 2026-05-06 15:51 | 36.84310 | 10.22058 | 12 ft | 0 kts | 102° |
| 2026-05-06 15:58 | 36.84310 | 10.22057 | 31 ft | 0 kts | 102° |
| 2026-05-06 16:10 | 36.84313 | 10.22042 | 30 ft | 4 kts | 102° |
| 2026-05-06 16:10 | 36.84319 | 10.22010 | 30 ft | 4 kts | 103° |
| 2026-05-06 16:11 | 36.84324 | 10.21983 | 30 ft | 4 kts | 116° |
| 2026-05-06 16:11 | 36.84341 | 10.21961 | 30 ft | 4 kts | 172° |
| 2026-05-06 16:11 | 36.84363 | 10.21963 | 30 ft | 1 kts | 192° |
| 2026-05-06 16:11 | 36.84364 | 10.21963 | 30 ft | 1 kts | 192° |
| 2026-05-06 16:13 | 36.84360 | 10.21962 | 30 ft | 2 kts | 191° |
| 2026-05-06 16:14 | 36.84349 | 10.21959 | 30 ft | 1 kts | 192° |
| 2026-05-06 16:14 | 36.84336 | 10.21955 | 30 ft | 3 kts | 193° |
| 2026-05-06 16:14 | 36.84310 | 10.21948 | 30 ft | 7 kts | 192° |
| 2026-05-06 16:14 | 36.84251 | 10.21932 | 30 ft | 10 kts | 192° |
| 2026-05-06 16:15 | 36.84201 | 10.21919 | 30 ft | 1 kts | 192° |
| 2026-05-06 16:15 | 36.84195 | 10.21917 | 30 ft | 0 kts | 192° |
| 2026-05-06 16:17 | 36.84193 | 10.21917 | 30 ft | 2 kts | 192° |
| 2026-05-06 16:18 | 36.84163 | 10.21908 | 30 ft | 7 kts | 192° |
| 2026-05-06 16:18 | 36.84100 | 10.21892 | 30 ft | 11 kts | 192° |
| 2026-05-06 16:18 | 36.84030 | 10.21874 | 30 ft | 12 kts | 192° |
| 2026-05-06 16:18 | 36.83945 | 10.21851 | 30 ft | 13 kts | 187° |
| 2026-05-06 16:19 | 36.83905 | 10.21889 | 30 ft | 8 kts | 114° |
| 2026-05-06 16:19 | 36.83889 | 10.21972 | 30 ft | 10 kts | 102° |
| 2026-05-06 16:19 | 36.83876 | 10.22052 | 30 ft | 9 kts | 101° |
| 2026-05-06 16:19 | 36.83866 | 10.22117 | 30 ft | 7 kts | 100° |
| 2026-05-06 16:20 | 36.83863 | 10.22167 | 30 ft | 5 kts | 83° |
| 2026-05-06 16:20 | 36.83870 | 10.22204 | 30 ft | 4 kts | 74° |
| 2026-05-06 16:20 | 36.83876 | 10.22228 | 31 ft | 2 kts | 72° |
| 2026-05-06 16:20 | 36.83877 | 10.22231 | 31 ft | 0 kts | 71° |
| 2026-05-06 16:21 | 36.83879 | 10.22237 | 31 ft | 3 kts | 71° |
| 2026-05-06 16:22 | 36.83904 | 10.22297 | 31 ft | 12 kts | 54° |
| 2026-05-06 16:22 | 36.83945 | 10.22382 | 31 ft | 10 kts | 39° |
| 2026-05-06 16:22 | 36.83975 | 10.22393 | 31 ft | 0 kts | 12° |
| 2026-05-06 16:23 | 36.84002 | 10.22400 | 31 ft | 20 kts | 12° |
| 2026-05-06 16:23 | 36.84391 | 10.22508 | 30 ft | 91 kts | 11° |
| 2026-05-06 16:23 | 36.85199 | 10.22727 | 34 ft | 143 kts | 12° |
| 2026-05-06 16:24 | 36.86553 | 10.23126 | 616 ft | 150 kts | 11° |
| 2026-05-06 16:24 | 36.87251 | 10.23291 | 921 ft | 153 kts | 4° |
| 2026-05-06 16:24 | 36.88280 | 10.22911 | 1395 ft | 159 kts | 335° |
| 2026-05-06 16:24 | 36.89285 | 10.22308 | 1815 ft | 164 kts | 336° |
| 2026-05-06 16:25 | 36.90400 | 10.21691 | 1968 ft | 187 kts | 342° |
| 2026-05-06 16:25 | 36.91764 | 10.21197 | 2075 ft | 219 kts | 347° |
| 2026-05-06 16:25 | 36.93310 | 10.20724 | 2415 ft | 243 kts | 347° |
| 2026-05-06 16:25 | 36.95055 | 10.20206 | 2926 ft | 262 kts | 348° |
| 2026-05-06 16:26 | 36.96843 | 10.19665 | 3753 ft | 268 kts | 347° |
| 2026-05-06 16:26 | 36.98677 | 10.19106 | 4591 ft | 273 kts | 347° |
| 2026-05-06 16:26 | 37.00540 | 10.18530 | 5402 ft | 279 kts | 346° |
| 2026-05-06 16:26 | 37.02429 | 10.17938 | 6141 ft | 287 kts | 346° |
| 2026-05-06 16:27 | 37.04414 | 10.17310 | 6923 ft | 292 kts | 345° |
| 2026-05-06 16:27 | 37.06396 | 10.16683 | 7714 ft | 296 kts | 345° |
| 2026-05-06 16:27 | 37.08380 | 10.16055 | 8510 ft | 300 kts | 344° |
| 2026-05-06 16:27 | 37.10414 | 10.15406 | 9301 ft | 304 kts | 343° |
| 2026-05-06 16:28 | 37.12483 | 10.14746 | 10056 ft | 309 kts | 343° |
| 2026-05-06 16:28 | 37.14631 | 10.14058 | 10369 ft | 331 kts | 343° |
| 2026-05-06 16:28 | 37.16943 | 10.13320 | 10573 ft | 354 kts | 343° |
| 2026-05-06 16:28 | 37.19387 | 10.12545 | 11012 ft | 367 kts | 343° |
| 2026-05-06 16:29 | 37.21881 | 10.11758 | 11682 ft | 372 kts | 342° |
| 2026-05-06 16:29 | 37.24407 | 10.10961 | 12387 ft | 376 kts | 342° |
| 2026-05-06 16:29 | 37.26962 | 10.10152 | 13089 ft | 380 kts | 342° |
| 2026-05-06 16:29 | 37.29548 | 10.09333 | 13774 ft | 384 kts | 342° |
| 2026-05-06 16:30 | 37.32148 | 10.08507 | 14402 ft | 388 kts | 342° |
| 2026-05-06 16:30 | 37.33886 | 10.07952 | 14823 ft | 389 kts | 341° |
| 2026-05-06 16:30 | 37.37415 | 10.06821 | 15653 ft | 393 kts | 341° |
| 2026-05-06 16:30 | 37.40080 | 10.05964 | 16267 ft | 397 kts | 341° |
| 2026-05-06 16:31 | 37.42764 | 10.05105 | 16877 ft | 400 kts | 341° |
| 2026-05-06 16:31 | 37.45479 | 10.04244 | 17470 ft | 404 kts | 341° |
| 2026-05-06 16:31 | 37.48227 | 10.03377 | 18060 ft | 408 kts | 341° |
| 2026-05-06 16:31 | 37.50996 | 10.02502 | 18588 ft | 412 kts | 341° |
| 2026-05-06 16:32 | 37.53783 | 10.01619 | 19134 ft | 414 kts | 341° |
| 2026-05-06 16:32 | 37.56590 | 10.00731 | 19695 ft | 416 kts | 341° |
| 2026-05-06 16:32 | 37.59405 | 9.99840 | 20247 ft | 419 kts | 341° |
| 2026-05-06 16:32 | 37.62249 | 9.98941 | 20784 ft | 421 kts | 341° |
| 2026-05-06 16:33 | 37.65064 | 9.98051 | 21313 ft | 423 kts | 341° |
| 2026-05-06 16:33 | 37.67931 | 9.97144 | 21827 ft | 426 kts | 341° |
| 2026-05-06 16:33 | 37.70815 | 9.96226 | 22336 ft | 428 kts | 341° |
| 2026-05-06 16:34 | 37.76622 | 9.94365 | 23291 ft | 434 kts | 341° |
| 2026-05-06 16:34 | 37.79552 | 9.93428 | 23708 ft | 436 kts | 341° |
| 2026-05-06 16:34 | 37.82509 | 9.92483 | 24088 ft | 439 kts | 341° |
| 2026-05-06 16:34 | 37.85479 | 9.91535 | 24467 ft | 441 kts | 341° |
| 2026-05-06 16:35 | 37.88504 | 9.90570 | 24836 ft | 444 kts | 341° |
| 2026-05-06 16:35 | 37.91509 | 9.89613 | 25202 ft | 446 kts | 341° |
| 2026-05-06 16:35 | 37.94485 | 9.88664 | 25555 ft | 448 kts | 341° |
| 2026-05-06 16:35 | 37.97521 | 9.87696 | 25903 ft | 451 kts | 341° |
| 2026-05-06 16:36 | 38.00607 | 9.86709 | 26259 ft | 453 kts | 341° |
| 2026-05-06 16:36 | 38.03632 | 9.85738 | 26595 ft | 455 kts | 341° |
| 2026-05-06 16:36 | 38.06704 | 9.84750 | 26940 ft | 457 kts | 341° |
| 2026-05-06 16:36 | 38.09800 | 9.83757 | 27271 ft | 459 kts | 341° |
| 2026-05-06 16:37 | 38.12946 | 9.82749 | 27602 ft | 461 kts | 341° |
| 2026-05-06 16:37 | 38.16065 | 9.81750 | 27922 ft | 463 kts | 341° |
| 2026-05-06 16:37 | 38.19199 | 9.80744 | 28227 ft | 465 kts | 341° |
| 2026-05-06 16:37 | 38.22353 | 9.79802 | 28523 ft | 470 kts | 346° |
| 2026-05-06 16:38 | 38.25635 | 9.79385 | 28808 ft | 477 kts | 355° |
| 2026-05-06 16:38 | 38.28969 | 9.79616 | 29084 ft | 484 kts | 4° |
| 2026-05-06 16:38 | 38.32305 | 9.80375 | 29345 ft | 488 kts | 7° |
| 2026-05-06 16:38 | 38.35649 | 9.81193 | 29605 ft | 490 kts | 7° |
| 2026-05-06 16:39 | 38.39010 | 9.82019 | 29854 ft | 491 kts | 7° |
| 2026-05-06 16:39 | 38.42367 | 9.82846 | 30181 ft | 491 kts | 7° |
| 2026-05-06 16:39 | 38.45718 | 9.83670 | 30486 ft | 490 kts | 7° |
| 2026-05-06 16:39 | 38.49066 | 9.84488 | 30780 ft | 489 kts | 7° |
| 2026-05-06 16:40 | 38.52413 | 9.85303 | 31079 ft | 488 kts | 7° |
| 2026-05-06 16:40 | 38.55746 | 9.86118 | 31390 ft | 488 kts | 7° |
| 2026-05-06 16:40 | 38.59077 | 9.86939 | 31692 ft | 487 kts | 7° |
| 2026-05-06 16:40 | 38.62402 | 9.87762 | 31999 ft | 486 kts | 7° |
| 2026-05-06 16:41 | 38.65718 | 9.88581 | 32307 ft | 485 kts | 7° |
| 2026-05-06 16:41 | 38.69030 | 9.89399 | 32617 ft | 484 kts | 7° |
| 2026-05-06 16:41 | 38.72335 | 9.90215 | 32918 ft | 483 kts | 7° |
| 2026-05-06 16:41 | 38.75633 | 9.91030 | 33217 ft | 483 kts | 7° |
| 2026-05-06 16:42 | 38.78930 | 9.91845 | 33521 ft | 482 kts | 7° |
| 2026-05-06 16:42 | 38.82216 | 9.92656 | 33829 ft | 481 kts | 7° |
| 2026-05-06 16:42 | 38.85486 | 9.93604 | 34109 ft | 483 kts | 13° |
| 2026-05-06 16:42 | 38.88666 | 9.94989 | 34375 ft | 483 kts | 16° |
| 2026-05-06 16:43 | 38.91792 | 9.96409 | 34646 ft | 482 kts | 16° |
| 2026-05-06 16:43 | 38.94986 | 9.97867 | 34938 ft | 480 kts | 16° |
| 2026-05-06 16:43 | 38.98092 | 9.99288 | 35215 ft | 479 kts | 16° |
| 2026-05-06 16:43 | 39.01226 | 10.00725 | 35474 ft | 478 kts | 16° |
| 2026-05-06 16:44 | 39.04352 | 10.02159 | 35733 ft | 476 kts | 16° |
| 2026-05-06 16:44 | 39.07470 | 10.03588 | 35918 ft | 476 kts | 15° |
| 2026-05-06 16:44 | 39.10635 | 10.05038 | 35960 ft | 475 kts | 15° |
| 2026-05-06 16:45 | 39.16854 | 10.07886 | 35962 ft | 475 kts | 15° |
| 2026-05-06 16:45 | 39.23074 | 10.10746 | 35960 ft | 474 kts | 15° |
| 2026-05-06 16:46 | 39.29290 | 10.13610 | 35961 ft | 474 kts | 15° |
| 2026-05-06 16:46 | 39.35507 | 10.16475 | 35966 ft | 474 kts | 15° |
| 2026-05-06 16:47 | 39.41724 | 10.19339 | 35966 ft | 474 kts | 15° |
| 2026-05-06 16:47 | 39.47940 | 10.22218 | 35969 ft | 474 kts | 15° |
| 2026-05-06 16:48 | 39.54156 | 10.25112 | 35969 ft | 474 kts | 15° |
| 2026-05-06 16:48 | 39.60375 | 10.28003 | 35970 ft | 474 kts | 15° |
| 2026-05-06 16:49 | 39.66588 | 10.30908 | 35973 ft | 475 kts | 15° |
| 2026-05-06 16:49 | 39.72809 | 10.33816 | 35976 ft | 475 kts | 15° |
| 2026-05-06 16:50 | 39.79032 | 10.36721 | 35976 ft | 475 kts | 15° |
| 2026-05-06 16:50 | 39.85248 | 10.39628 | 35979 ft | 475 kts | 15° |
| 2026-05-06 16:51 | 39.91460 | 10.42546 | 35972 ft | 475 kts | 15° |
| 2026-05-06 16:51 | 39.97635 | 10.45451 | 35969 ft | 474 kts | 15° |
| 2026-05-06 16:52 | 40.03853 | 10.48380 | 35968 ft | 475 kts | 15° |
| 2026-05-06 16:52 | 40.10067 | 10.51311 | 35961 ft | 475 kts | 14° |
| 2026-05-06 16:53 | 40.16329 | 10.54032 | 35963 ft | 470 kts | 7° |
| 2026-05-06 16:53 | 40.22733 | 10.55072 | 35955 ft | 463 kts | 359° |
| 2026-05-06 16:54 | 40.29147 | 10.55796 | 35956 ft | 463 kts | 359° |
| 2026-05-06 16:54 | 40.35572 | 10.56527 | 35957 ft | 463 kts | 359° |
| 2026-05-06 16:55 | 40.41949 | 10.57253 | 35956 ft | 463 kts | 359° |
| 2026-05-06 16:55 | 40.48386 | 10.57980 | 35965 ft | 463 kts | 359° |
| 2026-05-06 16:56 | 40.54815 | 10.58715 | 35967 ft | 463 kts | 359° |
| 2026-05-06 16:56 | 40.61232 | 10.59455 | 35971 ft | 463 kts | 358° |
| 2026-05-06 16:57 | 40.67648 | 10.60197 | 35972 ft | 462 kts | 358° |
| 2026-05-06 16:57 | 40.74050 | 10.60933 | 35972 ft | 462 kts | 358° |
| 2026-05-06 16:58 | 40.80453 | 10.61669 | 35969 ft | 462 kts | 358° |
| 2026-05-06 16:58 | 40.86849 | 10.62414 | 35965 ft | 461 kts | 358° |
| 2026-05-06 16:59 | 40.93245 | 10.63148 | 35962 ft | 461 kts | 358° |
| 2026-05-06 16:59 | 40.99641 | 10.63896 | 35959 ft | 461 kts | 358° |
| 2026-05-06 17:00 | 41.06044 | 10.64652 | 35952 ft | 462 kts | 358° |
| 2026-05-06 17:00 | 41.12445 | 10.65391 | 35949 ft | 462 kts | 358° |
| 2026-05-06 17:01 | 41.18854 | 10.66129 | 35945 ft | 462 kts | 358° |
| 2026-05-06 17:01 | 41.25270 | 10.66880 | 35944 ft | 463 kts | 358° |
| 2026-05-06 17:02 | 41.31688 | 10.67640 | 35943 ft | 463 kts | 358° |
| 2026-05-06 17:02 | 41.37022 | 10.68265 | 35943 ft | 463 kts | 358° |
| 2026-05-06 17:03 | 41.43495 | 10.69019 | 35942 ft | 464 kts | 358° |
| 2026-05-06 17:03 | 41.49929 | 10.69789 | 35941 ft | 464 kts | 358° |
| 2026-05-06 17:04 | 41.56365 | 10.70553 | 35930 ft | 465 kts | 358° |
| 2026-05-06 17:04 | 41.62794 | 10.71307 | 35938 ft | 464 kts | 357° |
| 2026-05-06 17:05 | 41.69235 | 10.72063 | 35944 ft | 464 kts | 358° |
| 2026-05-06 17:05 | 41.75671 | 10.72833 | 35919 ft | 464 kts | 358° |
| 2026-05-06 17:06 | 41.82109 | 10.73611 | 35937 ft | 465 kts | 358° |
| 2026-05-06 17:06 | 41.88555 | 10.74384 | 35941 ft | 465 kts | 358° |
| 2026-05-06 17:07 | 41.95011 | 10.75146 | 35943 ft | 466 kts | 358° |
| 2026-05-06 17:07 | 42.01465 | 10.75913 | 35947 ft | 466 kts | 358° |
| 2026-05-06 17:08 | 42.07927 | 10.76609 | 35944 ft | 464 kts | 355° |
| 2026-05-06 17:08 | 42.14363 | 10.76844 | 35930 ft | 462 kts | 353° |
| 2026-05-06 17:09 | 42.20790 | 10.76900 | 35942 ft | 462 kts | 353° |
| 2026-05-06 17:09 | 42.27234 | 10.77034 | 35940 ft | 463 kts | 354° |
| 2026-05-06 17:10 | 42.33682 | 10.77261 | 35938 ft | 464 kts | 354° |
| 2026-05-06 17:10 | 42.40135 | 10.77499 | 35940 ft | 464 kts | 354° |
| 2026-05-06 17:11 | 42.46602 | 10.77721 | 35948 ft | 464 kts | 354° |
| 2026-05-06 17:11 | 42.53017 | 10.77931 | 35950 ft | 464 kts | 354° |
| 2026-05-06 17:12 | 42.59479 | 10.78139 | 35955 ft | 464 kts | 354° |
| 2026-05-06 17:12 | 42.65944 | 10.78347 | 35955 ft | 464 kts | 354° |
| 2026-05-06 17:13 | 42.72394 | 10.78560 | 35960 ft | 464 kts | 354° |
| 2026-05-06 17:13 | 42.78860 | 10.78777 | 35957 ft | 464 kts | 354° |
| 2026-05-06 17:14 | 42.85312 | 10.78998 | 35952 ft | 464 kts | 354° |
| 2026-05-06 17:14 | 42.91763 | 10.79213 | 35951 ft | 464 kts | 353° |
| 2026-05-06 17:15 | 42.98220 | 10.79421 | 35948 ft | 464 kts | 353° |
| 2026-05-06 17:15 | 43.04685 | 10.79631 | 35943 ft | 465 kts | 353° |
| 2026-05-06 17:16 | 43.11152 | 10.79847 | 35945 ft | 465 kts | 354° |
| 2026-05-06 17:16 | 43.17626 | 10.80064 | 35941 ft | 466 kts | 354° |
| 2026-05-06 17:17 | 43.24107 | 10.80284 | 35942 ft | 467 kts | 354° |
| 2026-05-06 17:17 | 43.30607 | 10.80505 | 35944 ft | 467 kts | 354° |
| 2026-05-06 17:18 | 43.37103 | 10.80727 | 35948 ft | 467 kts | 354° |
| 2026-05-06 17:18 | 43.43613 | 10.80945 | 35946 ft | 468 kts | 354° |
| 2026-05-06 17:19 | 43.50121 | 10.81159 | 35946 ft | 468 kts | 354° |
| 2026-05-06 17:19 | 43.56628 | 10.81385 | 35944 ft | 468 kts | 354° |
| 2026-05-06 17:20 | 43.63153 | 10.81610 | 35949 ft | 469 kts | 354° |
| 2026-05-06 17:20 | 43.69689 | 10.82136 | 35942 ft | 472 kts | 358° |
| 2026-05-06 17:21 | 43.76247 | 10.82986 | 35947 ft | 473 kts | 359° |
| 2026-05-06 17:21 | 43.82796 | 10.83835 | 35946 ft | 472 kts | 358° |
| 2026-05-06 17:22 | 43.89343 | 10.84587 | 35945 ft | 472 kts | 358° |
| 2026-05-06 17:22 | 43.95895 | 10.85302 | 35938 ft | 471 kts | 358° |
| 2026-05-06 17:23 | 44.02399 | 10.86031 | 35940 ft | 472 kts | 358° |
| 2026-05-06 17:23 | 44.08998 | 10.86793 | 35935 ft | 473 kts | 358° |
| 2026-05-06 17:24 | 44.15515 | 10.87541 | 35932 ft | 473 kts | 358° |
| 2026-05-06 17:24 | 44.22090 | 10.88291 | 35935 ft | 474 kts | 358° |
| 2026-05-06 17:25 | 44.28716 | 10.89062 | 35917 ft | 475 kts | 358° |
| 2026-05-06 17:25 | 44.35270 | 10.89814 | 35900 ft | 476 kts | 358° |
| 2026-05-06 17:26 | 44.41920 | 10.90573 | 35899 ft | 476 kts | 358° |
| 2026-05-06 17:26 | 44.48484 | 10.91334 | 36000 ft | 478 kts | 359° |
| 2026-05-06 17:26 | 44.51832 | 10.91719 | 35861 ft | 486 kts | 359° |
| 2026-05-06 17:27 | 44.55218 | 10.92105 | 35882 ft | 490 kts | 359° |
| 2026-05-06 17:27 | 44.62071 | 10.92895 | 35874 ft | 491 kts | 359° |
| 2026-05-06 17:28 | 44.68828 | 10.93696 | 35874 ft | 490 kts | 359° |
| 2026-05-06 17:28 | 44.75630 | 10.94493 | 35872 ft | 490 kts | 359° |
| 2026-05-06 17:29 | 44.82443 | 10.95292 | 35875 ft | 491 kts | 359° |
| 2026-05-06 17:29 | 44.89255 | 10.96088 | 35884 ft | 491 kts | 359° |
| 2026-05-06 17:30 | 44.96066 | 10.96882 | 35889 ft | 491 kts | 359° |
| 2026-05-06 17:30 | 45.02882 | 10.97677 | 35889 ft | 492 kts | 359° |
| 2026-05-06 17:31 | 45.09707 | 10.98489 | 35891 ft | 492 kts | 359° |
| 2026-05-06 17:31 | 45.16539 | 10.99306 | 35894 ft | 493 kts | 359° |
| 2026-05-06 17:32 | 45.23387 | 11.00112 | 35894 ft | 494 kts | 359° |
| 2026-05-06 17:32 | 45.30231 | 11.00913 | 35869 ft | 494 kts | 359° |
| 2026-05-06 17:33 | 45.37098 | 11.01739 | 35869 ft | 494 kts | 359° |
| 2026-05-06 17:33 | 45.43951 | 11.02565 | 35866 ft | 494 kts | 360° |
| 2026-05-06 17:34 | 45.50809 | 11.03391 | 35871 ft | 495 kts | 359° |
| 2026-05-06 17:34 | 45.57677 | 11.04213 | 35875 ft | 495 kts | 360° |
| 2026-05-06 17:35 | 45.64549 | 11.05038 | 35881 ft | 495 kts | 360° |
| 2026-05-06 17:35 | 45.71417 | 11.05868 | 35896 ft | 495 kts | 360° |
| 2026-05-06 17:36 | 45.81719 | 11.07111 | 35904 ft | 494 kts | 0° |
| 2026-05-06 17:36 | 45.88574 | 11.07935 | 35914 ft | 494 kts | 360° |
| 2026-05-06 17:37 | 45.95416 | 11.08771 | 35916 ft | 494 kts | 0° |
| 2026-05-06 17:37 | 46.02270 | 11.09609 | 35933 ft | 493 kts | 360° |
| 2026-05-06 17:38 | 46.09114 | 11.10442 | 35951 ft | 493 kts | 0° |
| 2026-05-06 17:38 | 46.15941 | 11.11283 | 35967 ft | 493 kts | 0° |
| 2026-05-06 17:39 | 46.21622 | 11.11986 | 35981 ft | 492 kts | 0° |
| 2026-05-06 17:39 | 46.29563 | 11.12965 | 35988 ft | 492 kts | 0° |
| 2026-05-06 17:40 | 46.36385 | 11.13795 | 35992 ft | 492 kts | 0° |
| 2026-05-06 17:40 | 46.43209 | 11.14642 | 35984 ft | 492 kts | 0° |
| 2026-05-06 17:41 | 46.48888 | 11.15359 | 35881 ft | 491 kts | 0° |
| 2026-05-06 17:41 | 46.55704 | 11.16216 | 35879 ft | 490 kts | 0° |
| 2026-05-06 17:42 | 46.62518 | 11.17055 | 35884 ft | 490 kts | 0° |
| 2026-05-06 17:42 | 46.69325 | 11.17897 | 35890 ft | 491 kts | 360° |
| 2026-05-06 17:43 | 46.76114 | 11.18729 | 35888 ft | 490 kts | 0° |
| 2026-05-06 17:43 | 46.79513 | 11.19163 | 35736 ft | 490 kts | 0° |
| 2026-05-06 17:43 | 46.82911 | 11.19600 | 35483 ft | 489 kts | 0° |
| 2026-05-06 17:44 | 46.86291 | 11.20035 | 35232 ft | 491 kts | 0° |
| 2026-05-06 17:44 | 46.89716 | 11.20471 | 34977 ft | 492 kts | 0° |
| 2026-05-06 17:44 | 46.93130 | 11.20901 | 34728 ft | 494 kts | 0° |
| 2026-05-06 17:44 | 46.96558 | 11.21306 | 34078 ft | 497 kts | 359° |
| 2026-05-06 17:45 | 47.00038 | 11.21608 | 32996 ft | 502 kts | 357° |
| 2026-05-06 17:45 | 47.03528 | 11.21823 | 32022 ft | 504 kts | 357° |
| 2026-05-06 17:45 | 47.07059 | 11.21998 | 30998 ft | 508 kts | 356° |
| 2026-05-06 17:45 | 47.10599 | 11.22170 | 30197 ft | 508 kts | 357° |
| 2026-05-06 17:46 | 47.14106 | 11.22364 | 29532 ft | 503 kts | 358° |
| 2026-05-06 17:46 | 47.17599 | 11.22583 | 28849 ft | 499 kts | 358° |
| 2026-05-06 17:46 | 47.21060 | 11.22816 | 28193 ft | 495 kts | 358° |
| 2026-05-06 17:46 | 47.24479 | 11.23057 | 27548 ft | 490 kts | 358° |
| 2026-05-06 17:47 | 47.27865 | 11.23299 | 26913 ft | 485 kts | 359° |
| 2026-05-06 17:47 | 47.31215 | 11.23539 | 26277 ft | 479 kts | 359° |
| 2026-05-06 17:47 | 47.34547 | 11.23774 | 25660 ft | 475 kts | 359° |
| 2026-05-06 17:47 | 47.37831 | 11.23996 | 25041 ft | 472 kts | 359° |
| 2026-05-06 17:48 | 47.41098 | 11.24214 | 24434 ft | 468 kts | 359° |
| 2026-05-06 17:48 | 47.44334 | 11.24434 | 23841 ft | 464 kts | 0° |
| 2026-05-06 17:48 | 47.47547 | 11.24658 | 23322 ft | 459 kts | 0° |
| 2026-05-06 17:48 | 47.50734 | 11.24880 | 22636 ft | 455 kts | 0° |
| 2026-05-06 17:49 | 47.53871 | 11.25097 | 22153 ft | 448 kts | 0° |
| 2026-05-06 17:49 | 47.56967 | 11.25262 | 21691 ft | 442 kts | 0° |
| 2026-05-06 17:49 | 47.59969 | 11.25904 | 21557 ft | 431 kts | 15° |
| 2026-05-06 17:49 | 47.62692 | 11.27591 | 21456 ft | 420 kts | 26° |
| 2026-05-06 17:50 | 47.65317 | 11.29573 | 20911 ft | 423 kts | 27° |
| 2026-05-06 17:50 | 47.67934 | 11.31565 | 20353 ft | 422 kts | 27° |
| 2026-05-06 17:50 | 47.70540 | 11.33552 | 19803 ft | 421 kts | 27° |
| 2026-05-06 17:50 | 47.73140 | 11.35537 | 19269 ft | 419 kts | 27° |
| 2026-05-06 17:51 | 47.75729 | 11.37515 | 18741 ft | 418 kts | 27° |
| 2026-05-06 17:51 | 47.78303 | 11.39477 | 18216 ft | 412 kts | 27° |
| 2026-05-06 17:51 | 47.80828 | 11.41397 | 17642 ft | 403 kts | 27° |
| 2026-05-06 17:51 | 47.83306 | 11.43285 | 17062 ft | 398 kts | 27° |
| 2026-05-06 17:52 | 47.85765 | 11.45162 | 16486 ft | 395 kts | 27° |
| 2026-05-06 17:52 | 47.88197 | 11.47025 | 15925 ft | 392 kts | 26° |
| 2026-05-06 17:52 | 47.90609 | 11.48877 | 15377 ft | 388 kts | 26° |
| 2026-05-06 17:52 | 47.93007 | 11.50721 | 14834 ft | 388 kts | 26° |
| 2026-05-06 17:53 | 47.95393 | 11.52557 | 14300 ft | 388 kts | 26° |
| 2026-05-06 17:53 | 47.97798 | 11.54407 | 13782 ft | 388 kts | 26° |
| 2026-05-06 17:53 | 48.00209 | 11.56264 | 13198 ft | 388 kts | 26° |
| 2026-05-06 17:53 | 48.02597 | 11.58104 | 12629 ft | 387 kts | 26° |
| 2026-05-06 17:54 | 48.04992 | 11.59949 | 12148 ft | 384 kts | 26° |
| 2026-05-06 17:54 | 48.07342 | 11.61758 | 11894 ft | 375 kts | 26° |
| 2026-05-06 17:54 | 48.09643 | 11.63533 | 11633 ft | 369 kts | 26° |
| 2026-05-06 17:54 | 48.11916 | 11.65291 | 11386 ft | 367 kts | 26° |
| 2026-05-06 17:55 | 48.14213 | 11.67069 | 11109 ft | 365 kts | 26° |
| 2026-05-06 17:55 | 48.16423 | 11.68782 | 10860 ft | 363 kts | 26° |
| 2026-05-06 17:55 | 48.18666 | 11.70526 | 10611 ft | 362 kts | 26° |
| 2026-05-06 17:55 | 48.20862 | 11.72387 | 10355 ft | 362 kts | 34° |
| 2026-05-06 17:56 | 48.22778 | 11.74814 | 10120 ft | 360 kts | 46° |
| 2026-05-06 17:56 | 48.24320 | 11.77751 | 9876 ft | 359 kts | 59° |
| 2026-05-06 17:56 | 48.25426 | 11.81058 | 9687 ft | 347 kts | 71° |
| 2026-05-06 17:56 | 48.26050 | 11.84454 | 9555 ft | 331 kts | 83° |
| 2026-05-06 17:57 | 48.26328 | 11.87800 | 9422 ft | 317 kts | 86° |
| 2026-05-06 17:57 | 48.26577 | 11.91032 | 9287 ft | 307 kts | 86° |
| 2026-05-06 17:57 | 48.26821 | 11.94190 | 9157 ft | 304 kts | 86° |
| 2026-05-06 17:57 | 48.27062 | 11.97337 | 9026 ft | 302 kts | 86° |
| 2026-05-06 17:58 | 48.27299 | 12.00457 | 8894 ft | 301 kts | 86° |
| 2026-05-06 17:58 | 48.27535 | 12.03576 | 8762 ft | 300 kts | 86° |
| 2026-05-06 17:58 | 48.27766 | 12.06678 | 8634 ft | 299 kts | 86° |
| 2026-05-06 17:58 | 48.27994 | 12.09781 | 8415 ft | 298 kts | 86° |
| 2026-05-06 17:59 | 48.28220 | 12.12865 | 8165 ft | 297 kts | 86° |
| 2026-05-06 17:59 | 48.28453 | 12.15938 | 7785 ft | 296 kts | 84° |
| 2026-05-06 17:59 | 48.29021 | 12.18887 | 7409 ft | 296 kts | 62° |
| 2026-05-06 17:59 | 48.30359 | 12.21213 | 7029 ft | 295 kts | 35° |
| 2026-05-06 18:00 | 48.32217 | 12.22418 | 6672 ft | 291 kts | 8° |
| 2026-05-06 18:00 | 48.34204 | 12.22312 | 6310 ft | 285 kts | 343° |
| 2026-05-06 18:00 | 48.35983 | 12.21097 | 5734 ft | 285 kts | 320° |
| 2026-05-06 18:00 | 48.37292 | 12.18893 | 5323 ft | 278 kts | 297° |
| 2026-05-06 18:01 | 48.37923 | 12.16284 | 5270 ft | 258 kts | 276° |
| 2026-05-06 18:01 | 48.37927 | 12.13720 | 5205 ft | 233 kts | 256° |
| 2026-05-06 18:01 | 48.37232 | 12.11686 | 5124 ft | 214 kts | 232° |
| 2026-05-06 18:01 | 48.36533 | 12.09794 | 5033 ft | 202 kts | 261° |
| 2026-05-06 18:02 | 48.36514 | 12.07771 | 4993 ft | 184 kts | 268° |
| 2026-05-06 18:02 | 48.36405 | 12.05952 | 4823 ft | 167 kts | 260° |
| 2026-05-06 18:02 | 48.36268 | 12.04283 | 4645 ft | 154 kts | 262° |
| 2026-05-06 18:02 | 48.36155 | 12.02741 | 4459 ft | 143 kts | 262° |
| 2026-05-06 18:03 | 48.36046 | 12.01271 | 4282 ft | 139 kts | 263° |
| 2026-05-06 18:03 | 48.35939 | 11.99839 | 4100 ft | 137 kts | 263° |
| 2026-05-06 18:03 | 48.35834 | 11.98424 | 3920 ft | 136 kts | 263° |
| 2026-05-06 18:03 | 48.35729 | 11.97019 | 3740 ft | 134 kts | 263° |
| 2026-05-06 18:04 | 48.35624 | 11.95622 | 3556 ft | 136 kts | 264° |
| 2026-05-06 18:04 | 48.35518 | 11.94213 | 3378 ft | 134 kts | 264° |
| 2026-05-06 18:04 | 48.35415 | 11.92831 | 3204 ft | 133 kts | 264° |
| 2026-05-06 18:04 | 48.35310 | 11.91440 | 3020 ft | 133 kts | 264° |
| 2026-05-06 18:05 | 48.35206 | 11.90065 | 2851 ft | 132 kts | 263° |
| 2026-05-06 18:05 | 48.35103 | 11.88691 | 2669 ft | 132 kts | 263° |
| 2026-05-06 18:05 | 48.34998 | 11.87317 | 2475 ft | 132 kts | 259° |
| 2026-05-06 18:05 | 48.34903 | 11.85940 | 2318 ft | 133 kts | 263° |
| 2026-05-06 18:06 | 48.34792 | 11.84553 | 2161 ft | 134 kts | 262° |
| 2026-05-06 18:06 | 48.34686 | 11.83175 | 1913 ft | 132 kts | 263° |
| 2026-05-06 18:06 | 48.34581 | 11.81808 | 1721 ft | 132 kts | 262° |
| 2026-05-06 18:06 | 48.34480 | 11.80453 | 1532 ft | 130 kts | 263° |
| 2026-05-06 18:07 | 48.34380 | 11.79145 | 1493 ft | 116 kts | 264° |
| 2026-05-06 18:07 | 48.34299 | 11.78100 | 1486 ft | 80 kts | 264° |
| 2026-05-06 18:07 | 48.34255 | 11.77525 | 1485 ft | 34 kts | 263° |
| 2026-05-06 18:07 | 48.34271 | 11.77227 | 1481 ft | 26 kts | 287° |
| 2026-05-06 18:08 | 48.34333 | 11.77000 | 1483 ft | 10 kts | 293° |
| 2026-05-06 18:08 | 48.34363 | 11.76895 | 1480 ft | 12 kts | 293° |
| 2026-05-06 18:08 | 48.34393 | 11.76786 | 1485 ft | 11 kts | 293° |
| 2026-05-06 18:08 | 48.34418 | 11.76742 | 1482 ft | 5 kts | 340° |
| 2026-05-06 18:09 | 48.34458 | 11.76765 | 1481 ft | 8 kts | 51° |
| 2026-05-06 18:09 | 48.34475 | 11.76858 | 1485 ft | 11 kts | 83° |
| 2026-05-06 18:09 | 48.34485 | 11.76992 | 1485 ft | 14 kts | 83° |
| 2026-05-06 18:09 | 48.34495 | 11.77125 | 1473 ft | 11 kts | 83° |
| 2026-05-06 18:10 | 48.34506 | 11.77257 | 1485 ft | 14 kts | 83° |
| 2026-05-06 18:10 | 48.34515 | 11.77364 | 1485 ft | 9 kts | 83° |
| 2026-05-06 18:10 | 48.34523 | 11.77480 | 1481 ft | 13 kts | 84° |
| 2026-05-06 18:10 | 48.34533 | 11.77615 | 1485 ft | 9 kts | 84° |
| 2026-05-06 18:11 | 48.34542 | 11.77727 | 1483 ft | 12 kts | 83° |
| 2026-05-06 18:11 | 48.34547 | 11.77792 | 1480 ft | 7 kts | 83° |
| 2026-05-06 18:11 | 48.34553 | 11.77873 | 1479 ft | 8 kts | 83° |
| 2026-05-06 18:11 | 48.34596 | 11.77908 | 1485 ft | 5 kts | 343° |
| 2026-05-06 18:12 | 48.34650 | 11.77904 | 1474 ft | 10 kts | 355° |
| 2026-05-06 18:12 | 48.34727 | 11.77890 | 1481 ft | 11 kts | 352° |
| 2026-05-06 18:12 | 48.34804 | 11.77876 | 1473 ft | 9 kts | 353° |
| 2026-05-06 18:12 | 48.34880 | 11.77865 | 1482 ft | 10 kts | 354° |
| 2026-05-06 18:13 | 48.34916 | 11.77870 | 1485 ft | 5 kts | 40° |
| 2026-05-06 18:13 | 48.34925 | 11.77922 | 1485 ft | 5 kts | 86° |
| 2026-05-06 18:13 | 48.34927 | 11.77953 | 1476 ft | 1 kts | 81° |
| 2026-05-06 18:13 | 48.34929 | 11.77973 | 1479 ft | 0 kts | 82° |